Time;durP1;ratioP1;P1;durP2;ratioP2;P2;SDS_P1;SDS_P2;PMS_P1;PMS_P2;Temp;Humidity;BMP_temperature;BMP_pressure;BME280_temperature;BME280_humidity;BME280_pressure;Samples;Min_cycle;Max_cycle;Signal;HPM_P1;HPM_P2
2023/12/09 00:07:37;;;;;;;6.80;4.50;;;6.70;86.10;;;;;;4826938;29;20421;-83
2023/12/09 00:15:44;;;;;;;3.60;3.03;;;6.60;85.80;;;;;;4838193;29;20221;-83
2023/12/09 00:18:14;;;;;;;3.87;3.47;;;6.70;86.10;;;;;;4837498;29;20271;-83
2023/12/09 00:20:43;;;;;;;4.23;3.47;;;6.70;86.10;;;;;;4831277;29;20210;-84
2023/12/09 00:23:12;;;;;;;6.57;3.97;;;6.70;86.10;;;;;;4832557;29;20588;-84
2023/12/09 00:25:41;;;;;;;6.13;4.23;;;6.60;86.00;;;;;;4834754;29;20239;-83
2023/12/09 00:28:09;;;;;;;6.53;4.60;;;6.60;85.80;;;;;;4830395;29;20728;-83
2023/12/09 00:30:38;;;;;;;3.23;3.00;;;6.60;85.60;;;;;;4826523;29;20209;-82
2023/12/09 00:33:07;;;;;;;3.50;2.20;;;6.60;85.60;;;;;;4829758;29;20315;-82
2023/12/09 00:35:37;;;;;;;4.67;4.33;;;6.50;85.70;;;;;;4834805;29;20273;-82
2023/12/09 00:38:05;;;;;;;3.57;3.27;;;6.50;85.70;;;;;;4834523;29;20220;-82
2023/12/09 00:40:34;;;;;;;2.07;1.87;;;6.50;85.80;;;;;;4825748;29;20210;-82
2023/12/09 00:43:02;;;;;;;2.37;2.17;;;6.50;85.90;;;;;;4822806;29;20391;-82
2023/12/09 00:45:31;;;;;;;16.37;4.87;;;6.40;85.80;;;;;;4830800;29;20703;-82
2023/12/09 00:48:13;;;;;;;8.07;3.90;;;6.40;86.70;;;;;;4834780;29;20206;-82
2023/12/09 00:50:44;;;;;;;5.97;2.43;;;6.40;86.10;;;;;;4832270;29;20328;-82
2023/12/09 00:55:54;;;;;;;5.80;3.30;;;6.40;86.20;;;;;;4836434;29;20217;-82
2023/12/09 00:58:23;;;;;;;4.57;2.63;;;6.40;86.40;;;;;;4829776;29;20155;-83
2023/12/09 01:00:52;;;;;;;5.73;4.90;;;6.40;86.60;;;;;;4828784;29;20469;-82
2023/12/09 01:03:21;;;;;;;6.33;3.90;;;6.40;86.60;;;;;;4826732;29;20575;-82
2023/12/09 01:05:51;;;;;;;2.80;2.57;;;6.40;86.60;;;;;;4826503;29;20201;-83
2023/12/09 01:08:19;;;;;;;3.17;2.87;;;6.40;86.60;;;;;;4827677;29;20262;-82
2023/12/09 01:10:48;;;;;;;3.70;3.20;;;6.40;86.70;;;;;;4832922;29;20535;-81
2023/12/09 01:13:16;;;;;;;4.40;3.23;;;6.40;86.70;;;;;;4829036;29;20226;-81
2023/12/09 01:15:45;;;;;;;4.73;3.03;;;6.40;86.60;;;;;;4837483;29;20299;-83
2023/12/09 01:18:14;;;;;;;3.53;2.60;;;6.40;86.70;;;;;;4837398;29;20562;-82
2023/12/09 01:20:43;;;;;;;4.83;2.13;;;6.40;86.70;;;;;;4831412;29;20282;-83
2023/12/09 01:23:16;;;;;;;10.40;3.03;;;6.40;86.70;;;;;;4834579;29;20213;-82
2023/12/09 01:25:45;;;;;;;2.63;2.40;;;6.50;87.00;;;;;;4831640;29;20233;-82
2023/12/09 01:28:13;;;;;;;3.67;3.37;;;6.50;87.00;;;;;;4840093;29;20214;-81
2023/12/09 01:30:42;;;;;;;3.30;2.70;;;6.50;87.00;;;;;;4830854;29;20214;-81
2023/12/09 01:33:11;;;;;;;3.73;3.43;;;6.50;87.00;;;;;;4831765;29;20719;-82
2023/12/09 01:35:39;;;;;;;4.57;4.07;;;6.50;86.90;;;;;;4837624;29;20212;-82
2023/12/09 01:38:09;;;;;;;6.80;3.53;;;6.50;86.90;;;;;;4836791;29;20677;-82
2023/12/09 01:40:38;;;;;;;1.90;1.80;;;6.50;86.80;;;;;;4834132;29;20213;-83
2023/12/09 01:43:10;;;;;;;4.33;3.93;;;6.50;86.70;;;;;;4832929;29;20724;-83
2023/12/09 01:45:38;;;;;;;4.23;3.53;;;6.50;86.80;;;;;;4835466;29;20546;-82
2023/12/09 01:48:08;;;;;;;7.07;3.67;;;6.50;86.90;;;;;;4836534;29;20206;-81
2023/12/09 01:50:37;;;;;;;4.97;2.73;;;6.50;86.70;;;;;;4837605;29;20214;-83
2023/12/09 01:53:06;;;;;;;3.57;3.27;;;6.50;86.60;;;;;;4829506;29;20224;-83
2023/12/09 01:55:35;;;;;;;4.00;3.07;;;6.60;86.60;;;;;;4833619;29;20218;-83
2023/12/09 01:58:05;;;;;;;3.83;2.73;;;6.50;86.40;;;;;;4834032;29;20207;-83
2023/12/09 02:00:34;;;;;;;9.50;3.33;;;6.60;86.40;;;;;;4833910;29;20223;-83
2023/12/09 02:03:02;;;;;;;1.70;1.40;;;6.50;86.30;;;;;;4835151;29;20217;-83
2023/12/09 02:05:31;;;;;;;9.13;4.53;;;6.50;86.30;;;;;;4832612;29;20206;-82
2023/12/09 02:08:00;;;;;;;6.20;4.20;;;6.50;86.10;;;;;;4838759;29;20209;-80
2023/12/09 02:10:29;;;;;;;8.40;4.30;;;6.50;86.10;;;;;;4830832;29;20290;-82
2023/12/09 02:13:02;;;;;;;2.00;1.90;;;6.50;86.30;;;;;;4834172;29;20240;-81
2023/12/09 02:15:40;;;;;;;3.20;3.00;;;6.50;86.30;;;;;;4835672;29;20275;-81
2023/12/09 02:18:09;;;;;;;3.10;2.53;;;6.50;86.10;;;;;;4832034;29;20201;-82
2023/12/09 02:20:38;;;;;;;5.00;3.57;;;6.50;86.00;;;;;;4831802;29;20281;-82
2023/12/09 02:23:09;;;;;;;5.00;4.60;;;6.50;86.00;;;;;;4834043;29;20297;-82
2023/12/09 02:25:39;;;;;;;2.47;2.27;;;6.50;86.10;;;;;;4832794;29;20704;-82
2023/12/09 02:28:15;;;;;;;4.17;3.77;;;6.50;86.10;;;;;;4836348;29;20206;-82
2023/12/09 02:30:51;;;;;;;1.40;1.30;;;6.50;86.10;;;;;;4835912;29;20689;-81
2023/12/09 02:33:22;;;;;;;2.87;2.27;;;6.50;86.20;;;;;;4832886;29;20239;-82
2023/12/09 02:35:53;;;;;;;3.60;2.60;;;6.50;86.30;;;;;;4834636;29;20238;-82
2023/12/09 02:38:25;;;;;;;3.23;2.93;;;6.50;86.30;;;;;;4833381;29;20660;-83
2023/12/09 02:40:54;;;;;;;4.70;3.13;;;6.50;86.40;;;;;;4836131;29;20208;-84
2023/12/09 02:43:23;;;;;;;4.70;3.42;;;6.50;86.30;;;;;;4828229;29;20458;-84
2023/12/09 02:45:51;;;;;;;4.67;3.67;;;6.50;86.70;;;;;;4836937;29;20205;-82
2023/12/09 02:48:20;;;;;;;6.43;4.20;;;6.50;86.70;;;;;;4834906;29;20262;-83
2023/12/09 02:50:48;;;;;;;2.80;2.33;;;6.50;86.70;;;;;;4829805;29;20207;-83
2023/12/09 02:53:17;;;;;;;4.80;3.03;;;6.50;86.70;;;;;;4834270;29;20324;-84
2023/12/09 02:55:47;;;;;;;6.07;3.57;;;6.50;86.70;;;;;;4832641;29;20218;-83
2023/12/09 02:58:16;;;;;;;8.03;4.90;;;6.50;86.70;;;;;;4833026;29;20213;-83
2023/12/09 03:00:44;;;;;;;3.93;2.80;;;6.50;86.70;;;;;;4836195;29;20213;-83
2023/12/09 03:03:13;;;;;;;3.90;3.53;;;6.50;86.70;;;;;;4830615;29;20219;-84
2023/12/09 03:05:42;;;;;;;5.87;2.83;;;6.50;86.70;;;;;;4830695;29;20300;-84
2023/12/09 03:08:11;;;;;;;3.30;2.17;;;6.50;86.90;;;;;;4832676;29;20294;-82
2023/12/09 03:10:39;;;;;;;8.03;4.37;;;6.50;86.80;;;;;;4832375;29;20313;-83
2023/12/09 03:13:09;;;;;;;4.37;3.17;;;6.50;86.90;;;;;;4835003;29;20230;-82
2023/12/09 03:15:38;;;;;;;7.63;3.50;;;6.50;86.80;;;;;;4829746;29;20312;-81
2023/12/09 03:18:06;;;;;;;6.33;3.73;;;6.40;86.90;;;;;;4827404;29;20213;-82
2023/12/09 03:20:35;;;;;;;4.10;2.37;;;6.50;87.00;;;;;;4825915;29;20214;-83
2023/12/09 03:23:04;;;;;;;7.17;3.97;;;6.50;87.10;;;;;;4835588;29;20217;-82
2023/12/09 03:28:30;;;;;;;3.30;3.10;;;6.50;87.10;;;;;;4834155;29;20207;-83
2023/12/09 03:31:13;;;;;;;3.97;3.57;;;6.50;87.20;;;;;;4826789;29;20604;-83
2023/12/09 03:33:42;;;;;;;5.60;3.00;;;6.50;87.30;;;;;;4826574;29;20235;-83
2023/12/09 03:36:13;;;;;;;7.97;2.77;;;6.50;87.30;;;;;;4830927;29;20615;-82
2023/12/09 03:38:42;;;;;;;2.47;2.27;;;6.50;87.30;;;;;;4832893;29;20209;-82
2023/12/09 03:44:50;;;;;;;5.23;3.23;;;6.50;87.50;;;;;;4827734;29;20220;-82
2023/12/09 03:50:02;;;;;;;2.07;1.97;;;6.50;87.40;;;;;;4839287;29;20332;-81
2023/12/09 03:52:30;;;;;;;3.77;3.40;;;6.50;87.40;;;;;;4838448;29;20212;-82
2023/12/09 03:54:59;;;;;;;5.07;3.33;;;6.50;87.40;;;;;;4830315;29;20234;-82
2023/12/09 03:57:41;;;;;;;4.33;3.93;;;6.50;87.30;;;;;;4835394;29;20394;-82
2023/12/09 04:00:13;;;;;;;2.93;2.67;;;6.50;87.40;;;;;;4831368;29;20684;-82
2023/12/09 04:02:41;;;;;;;6.07;3.27;;;6.50;87.50;;;;;;4833292;29;20215;-81
2023/12/09 04:05:11;;;;;;;2.73;2.53;;;6.50;87.50;;;;;;4831386;29;20201;-83
2023/12/09 04:07:40;;;;;;;4.57;3.00;;;6.50;87.50;;;;;;4826172;29;20656;-83
2023/12/09 04:10:09;;;;;;;3.10;1.67;;;6.60;87.50;;;;;;4831252;29;20477;-82
2023/12/09 04:12:38;;;;;;;3.07;2.87;;;6.60;87.50;;;;;;4833755;29;20733;-82
2023/12/09 04:15:08;;;;;;;3.27;2.83;;;6.60;87.50;;;;;;4829283;29;20233;-82
2023/12/09 04:17:38;;;;;;;2.20;2.00;;;6.60;87.40;;;;;;4828562;29;21795;-82
2023/12/09 04:20:08;;;;;;;3.47;2.07;;;6.70;87.40;;;;;;4826990;29;20714;-82
2023/12/09 04:22:38;;;;;;;8.00;2.83;;;6.70;87.30;;;;;;4832212;29;20455;-82
2023/12/09 04:25:07;;;;;;;3.10;2.77;;;6.70;87.50;;;;;;4832480;29;20206;-82
2023/12/09 04:27:36;;;;;;;4.43;4.03;;;6.70;87.40;;;;;;4831908;29;20372;-82
2023/12/09 04:30:06;;;;;;;6.67;2.97;;;6.70;87.40;;;;;;4833254;29;20666;-82
2023/12/09 04:32:35;;;;;;;4.67;4.27;;;6.70;87.30;;;;;;4829354;29;20207;-82
2023/12/09 04:35:06;;;;;;;2.50;2.03;;;6.70;88.00;;;;;;4832070;29;20305;-83
2023/12/09 04:37:35;;;;;;;5.00;3.37;;;6.70;87.20;;;;;;4835482;29;20211;-83
2023/12/09 04:40:05;;;;;;;4.83;3.63;;;6.70;87.20;;;;;;4832209;29;20230;-83
2023/12/09 04:42:33;;;;;;;12.60;3.30;;;6.70;87.20;;;;;;4825125;29;20312;-82
2023/12/09 04:45:02;;;;;;;3.33;2.87;;;6.70;87.20;;;;;;4831615;29;20303;-84
2023/12/09 04:47:31;;;;;;;5.13;2.53;;;6.70;87.20;;;;;;4828081;29;20206;-84
2023/12/09 04:50:15;;;;;;;2.57;2.37;;;6.70;87.10;;;;;;4836064;29;20206;-83
2023/12/09 04:52:45;;;;;;;3.83;3.30;;;6.70;87.90;;;;;;4835877;29;20205;-84
2023/12/09 04:55:14;;;;;;;1.50;1.50;;;6.70;87.00;;;;;;4834433;29;20266;-84
2023/12/09 04:57:42;;;;;;;3.60;1.60;;;6.70;87.00;;;;;;4829450;29;20229;-83
2023/12/09 05:00:12;;;;;;;2.63;1.70;;;6.70;87.00;;;;;;4830645;29;20300;-84
2023/12/09 05:02:41;;;;;;;8.27;2.97;;;6.70;87.00;;;;;;4826299;29;20614;-83
2023/12/09 05:05:09;;;;;;;3.77;2.67;;;6.70;87.00;;;;;;4835111;29;20217;-82
2023/12/09 05:07:40;;;;;;;4.90;2.67;;;6.70;87.00;;;;;;4832454;29;20220;-83
2023/12/09 05:10:12;;;;;;;3.20;1.43;;;6.70;87.00;;;;;;4832190;29;20217;-82
2023/12/09 05:12:40;;;;;;;3.70;3.40;;;6.70;87.00;;;;;;4826596;29;20296;-82
2023/12/09 05:15:10;;;;;;;2.37;2.17;;;6.70;86.90;;;;;;4834670;29;20735;-82
2023/12/09 05:17:39;;;;;;;3.97;2.17;;;6.70;86.90;;;;;;4833059;29;20268;-82
2023/12/09 05:20:09;;;;;;;3.30;2.47;;;6.70;86.90;;;;;;4836739;29;20283;-82
2023/12/09 05:22:40;;;;;;;2.43;1.70;;;6.70;86.90;;;;;;4832477;29;20221;-82
2023/12/09 05:25:09;;;;;;;2.93;1.57;;;6.70;86.90;;;;;;4829855;29;20294;-82
2023/12/09 05:27:38;;;;;;;3.40;3.13;;;6.70;86.90;;;;;;4823904;29;20344;-83
2023/12/09 05:30:08;;;;;;;2.50;2.10;;;6.70;86.90;;;;;;4826789;29;20285;-82
2023/12/09 05:32:37;;;;;;;2.37;2.10;;;6.70;86.80;;;;;;4828916;29;20712;-84
2023/12/09 05:35:06;;;;;;;2.07;1.97;;;6.70;86.90;;;;;;4828694;29;20233;-82
2023/12/09 05:37:35;;;;;;;2.83;2.23;;;6.70;86.90;;;;;;4832069;29;20217;-82
2023/12/09 05:40:06;;;;;;;2.33;2.13;;;6.70;87.00;;;;;;4831331;29;20254;-82
2023/12/09 05:42:35;;;;;;;4.53;2.60;;;6.70;87.00;;;;;;4829040;29;20287;-82
2023/12/09 05:47:46;;;;;;;7.00;3.33;;;6.70;86.90;;;;;;4830082;29;20214;-82
2023/12/09 05:52:57;;;;;;;3.33;2.10;;;6.60;86.90;;;;;;4826232;29;21380;-82
2023/12/09 05:55:41;;;;;;;4.87;2.70;;;6.60;87.90;;;;;;4833983;29;20226;-82
2023/12/09 05:58:10;;;;;;;3.53;2.13;;;6.60;87.20;;;;;;4825037;29;20214;-82
2023/12/09 06:00:38;;;;;;;4.37;3.87;;;6.60;88.00;;;;;;4832189;29;20580;-82
2023/12/09 06:03:08;;;;;;;2.30;2.10;;;6.50;87.20;;;;;;4831193;29;20202;-82
2023/12/09 06:05:36;;;;;;;2.63;2.43;;;6.50;87.10;;;;;;4825976;29;20615;-82
2023/12/09 06:08:05;;;;;;;2.40;2.17;;;6.50;87.20;;;;;;4831303;29;20206;-82
2023/12/09 06:10:33;;;;;;;3.00;2.80;;;6.40;87.20;;;;;;4825104;29;20297;-82
2023/12/09 06:13:03;;;;;;;4.67;4.27;;;6.40;87.30;;;;;;4829849;29;20292;-81
2023/12/09 06:15:32;;;;;;;5.27;2.27;;;6.30;87.30;;;;;;4830009;29;20716;-82
2023/12/09 06:20:43;;;;;;;7.83;3.93;;;6.30;87.60;;;;;;4834890;29;20201;-81
2023/12/09 06:23:13;;;;;;;8.37;3.27;;;6.30;87.90;;;;;;4830930;29;20202;-81
2023/12/09 06:25:43;;;;;;;2.23;1.60;;;6.20;88.00;;;;;;4829535;29;20324;-82
2023/12/09 06:28:13;;;;;;;2.90;2.57;;;6.20;88.00;;;;;;4835365;29;20239;-82
2023/12/09 06:30:42;;;;;;;2.57;2.37;;;6.20;89.00;;;;;;4834804;29;20209;-82
2023/12/09 06:33:11;;;;;;;1.87;1.77;;;6.10;88.10;;;;;;4837411;29;20213;-81
2023/12/09 06:38:25;;;;;;;2.90;2.70;;;6.10;88.40;;;;;;4834038;29;20281;-82
2023/12/09 06:40:54;;;;;;;2.90;2.70;;;6.10;88.60;;;;;;4833022;29;20199;-80
2023/12/09 06:43:39;;;;;;;3.47;3.17;;;6.00;88.60;;;;;;4823516;29;20213;-81
2023/12/09 06:46:08;;;;;;;15.43;4.23;;;6.00;88.60;;;;;;4831894;29;20219;-80
2023/12/09 06:48:38;;;;;;;3.00;2.70;;;6.00;88.70;;;;;;4832253;29;20244;-82
2023/12/09 06:54:03;;;;;;;1.87;1.77;;;6.00;89.00;;;;;;4828482;29;20214;-85
2023/12/09 06:56:32;;;;;;;1.92;1.80;;;6.00;89.00;;;;;;4831894;29;20459;-81
2023/12/09 06:59:02;;;;;;;6.17;3.40;;;5.90;89.00;;;;;;4835795;29;20222;-84
2023/12/09 07:01:30;;;;;;;3.40;2.37;;;5.90;89.10;;;;;;4836685;29;20581;-82
2023/12/09 07:03:59;;;;;;;4.10;3.70;;;5.90;89.20;;;;;;4831226;29;20611;-81
2023/12/09 07:06:29;;;;;;;2.30;2.17;;;5.90;89.20;;;;;;4834690;29;20206;-83
2023/12/09 07:08:58;;;;;;;2.60;2.40;;;5.90;89.30;;;;;;4827074;29;20607;-83
2023/12/09 07:11:27;;;;;;;2.43;1.50;;;5.90;89.30;;;;;;4833176;29;20209;-83
2023/12/09 07:13:56;;;;;;;1.03;1.03;;;5.90;89.50;;;;;;4836190;29;20308;-82
2023/12/09 07:16:27;;;;;;;3.40;3.10;;;5.90;89.40;;;;;;4829835;29;20222;-84
2023/12/09 07:18:59;;;;;;;2.63;1.73;;;5.80;89.50;;;;;;4837801;29;20653;-83
2023/12/09 07:21:42;;;;;;;1.97;1.87;;;5.80;89.50;;;;;;4835114;29;20267;-84
2023/12/09 07:24:11;;;;;;;3.20;2.90;;;5.80;89.50;;;;;;4831611;29;20217;-83
2023/12/09 07:26:44;;;;;;;4.83;1.93;;;5.80;89.60;;;;;;4835773;29;20627;-83
2023/12/09 07:29:12;;;;;;;6.53;5.10;;;5.80;89.70;;;;;;4835854;29;20679;-82
2023/12/09 07:31:43;;;;;;;2.37;2.17;;;5.80;89.90;;;;;;4832549;29;20245;-82
2023/12/09 07:34:16;;;;;;;6.23;2.60;;;5.80;89.90;;;;;;4831967;29;20214;-83
2023/12/09 07:36:48;;;;;;;3.13;2.83;;;5.80;90.00;;;;;;4832921;29;20228;-84
2023/12/09 07:39:17;;;;;;;6.60;3.50;;;5.80;90.00;;;;;;4831918;29;20209;-84
2023/12/09 07:41:50;;;;;;;3.20;2.83;;;5.70;90.00;;;;;;4828999;29;20214;-84
2023/12/09 07:44:19;;;;;;;3.33;3.03;;;5.70;90.00;;;;;;4831271;29;20277;-85
2023/12/09 07:46:50;;;;;;;1.63;1.53;;;5.70;90.00;;;;;;4832510;29;20242;-86
2023/12/09 07:49:19;;;;;;;4.83;2.77;;;5.70;90.00;;;;;;4832414;29;20271;-84
2023/12/09 07:51:48;;;;;;;5.30;3.93;;;5.70;90.10;;;;;;4831512;29;20213;-88
2023/12/09 07:54:17;;;;;;;4.20;3.17;;;5.70;90.10;;;;;;4833224;29;20567;-87
2023/12/09 07:56:45;;;;;;;5.10;2.13;;;5.70;90.10;;;;;;4832446;29;20231;-84
2023/12/09 07:59:14;;;;;;;4.83;2.73;;;5.70;90.00;;;;;;4827988;29;20216;-87
2023/12/09 08:01:43;;;;;;;4.77;2.47;;;5.70;90.00;;;;;;4833899;29;20309;-85
2023/12/09 08:04:13;;;;;;;1.87;1.77;;;5.70;90.10;;;;;;4831130;29;20673;-83
2023/12/09 08:06:42;;;;;;;2.93;2.70;;;5.70;90.10;;;;;;4834591;29;20205;-84
2023/12/09 08:09:11;;;;;;;4.97;3.10;;;5.70;90.10;;;;;;4835765;29;20205;-86
2023/12/09 08:11:41;;;;;;;1.23;1.23;;;5.70;90.10;;;;;;4839491;29;20257;-86
2023/12/09 08:14:10;;;;;;;1.77;1.67;;;5.70;90.20;;;;;;4831428;29;20245;-85
2023/12/09 08:16:38;;;;;;;5.67;3.33;;;5.70;90.20;;;;;;4823718;29;20233;-86
2023/12/09 08:19:07;;;;;;;3.87;2.27;;;5.70;90.20;;;;;;4827137;29;20306;-86
2023/12/09 08:21:38;;;;;;;3.00;2.80;;;5.70;90.30;;;;;;4829985;29;20270;-86
2023/12/09 08:24:07;;;;;;;9.23;1.90;;;5.70;90.30;;;;;;4834115;29;20262;-86
2023/12/09 08:26:37;;;;;;;4.80;3.70;;;5.70;90.30;;;;;;4829863;29;20259;-86
2023/12/09 08:29:08;;;;;;;0.87;0.87;;;5.70;90.30;;;;;;4830296;29;20210;-86
2023/12/09 08:31:36;;;;;;;4.83;3.43;;;5.70;90.30;;;;;;4832567;29;20289;-86
2023/12/09 08:34:05;;;;;;;3.50;3.30;;;5.70;90.20;;;;;;4836449;29;20209;-84
2023/12/09 08:36:34;;;;;;;2.23;2.10;;;5.70;90.30;;;;;;4828839;29;20579;-84
2023/12/09 08:39:04;;;;;;;1.43;1.20;;;5.70;90.30;;;;;;4831909;29;20207;-88
2023/12/09 08:41:33;;;;;;;2.77;1.80;;;5.70;90.40;;;;;;4832349;29;20294;-87
2023/12/09 08:44:03;;;;;;;3.10;2.43;;;5.70;90.40;;;;;;4834449;29;20680;-87
2023/12/09 08:46:32;;;;;;;2.00;1.50;;;5.80;90.40;;;;;;4834003;29;20691;-86
2023/12/09 08:49:00;;;;;;;1.53;0.80;;;5.80;90.40;;;;;;4832159;29;20214;-87
2023/12/09 08:51:29;;;;;;;1.40;1.30;;;5.80;90.50;;;;;;4832687;29;20201;-88
2023/12/09 08:53:58;;;;;;;2.23;1.50;;;5.90;90.50;;;;;;4830926;29;20212;-86
2023/12/09 08:56:28;;;;;;;2.03;1.93;;;5.90;90.50;;;;;;4832421;29;20224;-86
2023/12/09 08:58:57;;;;;;;1.33;1.23;;;5.90;90.50;;;;;;4829435;29;20245;-88
2023/12/09 09:01:25;;;;;;;2.63;2.00;;;6.00;90.50;;;;;;4830919;29;20218;-86
2023/12/09 09:03:54;;;;;;;4.00;3.13;;;6.00;90.50;;;;;;4836927;29;20222;-87
2023/12/09 09:06:22;;;;;;;1.93;1.67;;;6.00;90.40;;;;;;4837985;29;20657;-86
2023/12/09 09:08:51;;;;;;;1.30;1.27;;;6.00;90.40;;;;;;4839409;29;20291;-85
2023/12/09 09:11:35;;;;;;;1.90;1.80;;;6.10;90.40;;;;;;4833809;29;20220;-86
2023/12/09 09:14:04;;;;;;;2.07;1.83;;;6.10;90.30;;;;;;4839131;29;20208;-86
2023/12/09 09:19:15;;;;;;;5.07;2.93;;;6.10;90.20;;;;;;4830071;29;20893;-86
2023/12/09 09:21:57;;;;;;;5.43;2.43;;;6.20;90.10;;;;;;4828197;29;20654;-85
2023/12/09 09:24:26;;;;;;;2.57;2.37;;;6.10;90.00;;;;;;4829525;29;20225;-86
2023/12/09 09:27:05;;;;;;;1.23;1.17;;;6.10;90.00;;;;;;4830499;29;20671;-87
2023/12/09 09:29:34;;;;;;;2.37;2.17;;;6.10;90.00;;;;;;4829706;29;21056;-85
2023/12/09 09:35:12;;;;;;;0.80;0.80;;;6.10;90.00;;;;;;4837281;29;20233;-86
2023/12/09 09:37:41;;;;;;;2.20;2.00;;;6.10;90.00;;;;;;4830455;29;20226;-87
2023/12/09 09:46:08;;;;;;;3.40;3.20;;;6.10;90.00;;;;;;4837796;29;20209;-85
2023/12/09 09:48:38;;;;;;;6.23;2.87;;;6.10;90.00;;;;;;4836644;29;20313;-86
2023/12/09 09:54:06;;;;;;;3.00;2.70;;;6.10;90.00;;;;;;4840638;29;20221;-84
2023/12/09 09:56:36;;;;;;;1.23;1.23;;;6.10;90.00;;;;;;4840220;29;20209;-83
2023/12/09 09:59:20;;;;;;;2.23;2.03;;;6.10;90.00;;;;;;4832365;29;20214;-84
2023/12/09 10:07:44;;;;;;;3.90;3.17;;;6.20;90.00;;;;;;4841681;29;20326;-84
2023/12/09 10:13:15;;;;;;;3.10;2.57;;;6.20;90.00;;;;;;4836509;29;20656;-86
2023/12/09 10:18:27;;;;;;;2.13;2.03;;;6.20;90.00;;;;;;4829627;29;20740;-85
2023/12/09 10:21:10;;;;;;;2.33;2.13;;;6.20;90.00;;;;;;4827847;29;20205;-84
2023/12/09 10:23:38;;;;;;;5.80;2.83;;;6.20;90.00;;;;;;4836269;29;20223;-84
2023/12/09 10:26:07;;;;;;;2.30;1.43;;;6.10;90.00;;;;;;4838071;29;20584;-86
2023/12/09 10:28:36;;;;;;;1.00;1.00;;;6.20;90.00;;;;;;4839636;29;20218;-84
2023/12/09 10:31:09;;;;;;;2.00;1.90;;;6.20;90.00;;;;;;4831351;29;20208;-86
2023/12/09 10:33:52;;;;;;;2.53;2.33;;;6.20;90.00;;;;;;4836131;29;20921;-84
2023/12/09 10:36:20;;;;;;;9.53;2.80;;;6.10;90.00;;;;;;4827087;29;20207;-84
2023/12/09 10:38:52;;;;;;;4.70;3.40;;;6.20;90.00;;;;;;4838046;29;20242;-84
2023/12/09 10:41:35;;;;;;;3.20;2.90;;;6.10;90.00;;;;;;4832352;29;20217;-85
2023/12/09 10:46:47;;;;;;;2.60;1.87;;;6.10;90.00;;;;;;4839307;29;20205;-82
2023/12/09 10:49:16;;;;;;;2.40;2.20;;;6.10;90.10;;;;;;4830520;29;20249;-83
2023/12/09 10:54:27;;;;;;;9.33;4.73;;;6.10;90.10;;;;;;4834838;29;20214;-83
2023/12/09 10:56:56;;;;;;;6.40;4.07;;;6.10;90.10;;;;;;4834400;29;20657;-84
2023/12/09 10:59:40;;;;;;;3.60;3.30;;;6.10;90.20;;;;;;4833468;29;20209;-84
2023/12/09 11:02:27;;;;;;;3.90;3.00;;;6.10;90.10;;;;;;4838336;29;20206;-85
2023/12/09 11:05:10;;;;;;;8.83;3.63;;;6.10;90.20;;;;;;4833912;29;20216;-85
2023/12/09 11:07:40;;;;;;;4.53;2.43;;;6.10;90.10;;;;;;4835506;29;20300;-86
2023/12/09 11:12:53;;;;;;;5.30;2.33;;;6.10;90.20;;;;;;4832422;29;20207;-86
2023/12/09 11:15:30;;;;;;;3.47;2.93;;;6.10;90.20;;;;;;4831654;29;20214;-85
2023/12/09 11:18:17;;;;;;;2.83;2.10;;;6.10;90.20;;;;;;4840108;29;20240;-84
2023/12/09 11:21:00;;;;;;;3.13;2.20;;;6.10;90.20;;;;;;4831800;29;20225;-83
2023/12/09 11:23:29;;;;;;;5.30;4.30;;;6.00;90.30;;;;;;4833532;29;20232;-84
2023/12/09 11:25:58;;;;;;;3.30;2.23;;;6.00;90.20;;;;;;4834001;29;20697;-83
2023/12/09 11:28:40;;;;;;;2.30;2.17;;;6.00;90.20;;;;;;4839710;29;20206;-83
2023/12/09 11:31:09;;;;;;;1.47;1.33;;;6.00;90.20;;;;;;4837598;29;20638;-83
2023/12/09 11:34:08;;;;;;;1.10;1.10;;;6.00;90.20;;;;;;4831347;29;20680;-83
2023/12/09 11:36:53;;;;;;;3.90;2.47;;;6.00;90.20;;;;;;4836988;29;20574;-83
2023/12/09 11:42:24;;;;;;;2.53;2.00;;;6.00;90.30;;;;;;4825059;29;20210;-82
2023/12/09 11:45:12;;;;;;;2.97;2.77;;;6.00;90.30;;;;;;4829751;29;20702;-82
2023/12/09 11:47:43;;;;;;;5.23;2.93;;;6.00;90.30;;;;;;4830795;29;20208;-82
2023/12/09 11:50:16;;;;;;;1.40;1.37;;;6.00;90.20;;;;;;4833978;29;20213;-83
2023/12/09 11:52:45;;;;;;;3.07;2.10;;;6.00;90.20;;;;;;4838752;29;20581;-82
2023/12/09 11:55:16;;;;;;;7.00;3.40;;;6.00;90.30;;;;;;4832110;29;20209;-82
2023/12/09 11:57:45;;;;;;;3.60;2.60;;;6.00;90.30;;;;;;4835272;29;20224;-83
2023/12/09 12:00:15;;;;;;;2.07;1.93;;;6.00;90.30;;;;;;4834520;29;20571;-80
2023/12/09 12:02:44;;;;;;;3.37;2.73;;;6.00;90.40;;;;;;4830827;29;20226;-82
2023/12/09 12:05:14;;;;;;;1.30;1.30;;;6.00;90.50;;;;;;4831296;29;20305;-83
2023/12/09 12:07:43;;;;;;;4.30;3.53;;;6.00;90.50;;;;;;4835060;29;20567;-83
2023/12/09 12:10:14;;;;;;;3.00;2.73;;;6.00;90.50;;;;;;4832208;29;20658;-84
2023/12/09 12:12:44;;;;;;;4.67;3.30;;;6.00;90.50;;;;;;4832753;29;20212;-83
2023/12/09 12:15:13;;;;;;;1.37;1.27;;;6.00;90.50;;;;;;4835402;29;20232;-81
2023/12/09 12:17:42;;;;;;;2.40;1.93;;;6.00;90.50;;;;;;4832149;29;20591;-85
2023/12/09 12:20:13;;;;;;;2.07;1.90;;;6.00;90.50;;;;;;4835304;29;20294;-82
2023/12/09 12:22:42;;;;;;;2.93;2.73;;;6.00;90.60;;;;;;4828180;29;20210;-84
2023/12/09 12:25:11;;;;;;;3.50;2.60;;;6.00;90.60;;;;;;4830519;29;20258;-84
2023/12/09 12:27:44;;;;;;;4.63;1.67;;;6.00;90.60;;;;;;4831634;29;20233;-84
2023/12/09 12:30:14;;;;;;;1.43;1.37;;;6.00;90.60;;;;;;4831372;29;20227;-83
2023/12/09 12:32:44;;;;;;;1.60;1.50;;;6.00;90.50;;;;;;4831964;29;20245;-84
2023/12/09 12:35:14;;;;;;;2.10;1.20;;;6.00;90.60;;;;;;4835553;29;20310;-84
2023/12/09 12:37:43;;;;;;;2.07;1.87;;;6.00;90.60;;;;;;4835885;29;20301;-85
2023/12/09 12:40:12;;;;;;;1.97;1.87;;;6.00;90.60;;;;;;4828672;29;20213;-82
2023/12/09 12:42:42;;;;;;;3.90;2.50;;;6.00;90.60;;;;;;4837643;29;20208;-81
2023/12/09 12:45:18;;;;;;;1.47;1.37;;;6.00;90.60;;;;;;4835692;29;20282;-87
2023/12/09 12:47:47;;;;;;;3.17;2.87;;;6.00;90.60;;;;;;4838157;29;20217;-85
2023/12/09 12:50:18;;;;;;;2.10;1.87;;;6.00;90.60;;;;;;4832070;29;21041;-86
2023/12/09 12:52:46;;;;;;;3.13;1.90;;;6.00;90.60;;;;;;4831127;29;20695;-84
2023/12/09 12:55:15;;;;;;;1.10;1.10;;;6.00;90.60;;;;;;4833720;29;20210;-84
2023/12/09 12:57:44;;;;;;;6.90;3.87;;;6.00;90.60;;;;;;4835002;29;20212;-87
2023/12/09 13:00:17;;;;;;;1.67;1.57;;;6.00;90.70;;;;;;4827372;29;20332;-86
2023/12/09 13:02:46;;;;;;;9.23;3.00;;;6.00;90.70;;;;;;4830417;29;20218;-82
2023/12/09 13:05:15;;;;;;;4.57;2.73;;;6.00;90.80;;;;;;4835259;29;20565;-88
2023/12/09 13:07:45;;;;;;;7.17;2.23;;;6.00;90.80;;;;;;4832162;29;20200;-84
2023/12/09 13:10:14;;;;;;;9.70;4.53;;;6.00;90.80;;;;;;4832116;29;20243;-85
2023/12/09 13:12:43;;;;;;;1.70;1.60;;;6.00;90.80;;;;;;4831697;29;20214;-86
2023/12/09 13:15:13;;;;;;;3.08;2.75;;;6.00;90.80;;;;;;4834130;29;20456;-85
2023/12/09 13:17:42;;;;;;;1.93;1.57;;;6.00;90.90;;;;;;4835585;29;20207;-87
2023/12/09 13:20:12;;;;;;;2.77;2.57;;;6.00;90.90;;;;;;4832264;29;20316;-83
2023/12/09 13:22:41;;;;;;;4.03;2.93;;;6.00;91.00;;;;;;4828389;29;20209;-85
2023/12/09 13:25:13;;;;;;;2.50;2.30;;;6.00;90.90;;;;;;4831740;29;20210;-85
2023/12/09 13:27:44;;;;;;;6.20;3.17;;;6.00;91.00;;;;;;4830798;29;20211;-85
2023/12/09 13:30:14;;;;;;;4.33;3.60;;;6.00;90.90;;;;;;4827865;29;20246;-86
2023/12/09 13:32:44;;;;;;;2.30;1.67;;;6.00;90.90;;;;;;4835983;29;20206;-84
2023/12/09 13:35:14;;;;;;;9.40;3.27;;;6.00;91.00;;;;;;4835055;29;20333;-86
2023/12/09 13:37:43;;;;;;;3.57;2.60;;;6.00;91.00;;;;;;4831523;29;20218;-84
2023/12/09 13:40:17;;;;;;;3.65;2.40;;;6.00;91.00;;;;;;4834233;29;20470;-84
2023/12/09 13:42:45;;;;;;;2.93;2.30;;;6.00;91.20;;;;;;4834689;29;20223;-85
2023/12/09 13:45:14;;;;;;;3.13;2.93;;;6.00;91.20;;;;;;4832733;29;20225;-85
2023/12/09 13:47:44;;;;;;;2.43;2.23;;;6.10;91.20;;;;;;4830911;29;20217;-84
2023/12/09 13:50:13;;;;;;;1.60;1.50;;;6.00;91.20;;;;;;4829950;29;20626;-85
2023/12/09 13:52:42;;;;;;;2.83;1.67;;;6.10;91.20;;;;;;4825256;29;20293;-86
2023/12/09 13:55:10;;;;;;;4.63;3.37;;;6.10;91.10;;;;;;4828734;29;20216;-85
2023/12/09 13:57:40;;;;;;;3.07;2.17;;;6.10;91.10;;;;;;4823409;29;20300;-84
2023/12/09 14:00:15;;;;;;;3.43;2.77;;;6.10;91.10;;;;;;4835623;29;20225;-86
2023/12/09 14:02:45;;;;;;;1.27;1.17;;;6.10;91.10;;;;;;4833267;29;20212;-84
2023/12/09 14:05:27;;;;;;;7.63;3.60;;;6.10;91.00;;;;;;4830215;29;20676;-84
2023/12/09 14:07:56;;;;;;;4.87;2.67;;;6.10;91.00;;;;;;4828843;29;20206;-83
2023/12/09 14:10:24;;;;;;;6.40;3.27;;;6.10;91.00;;;;;;4840553;29;20707;-83
2023/12/09 14:18:34;;;;;;;5.10;2.67;;;6.10;91.10;;;;;;4830317;29;20578;-81
2023/12/09 14:21:03;;;;;;;2.90;2.57;;;6.10;91.40;;;;;;4836287;29;20253;-82
2023/12/09 14:23:32;;;;;;;3.43;3.17;;;6.10;91.00;;;;;;4841446;29;20210;-82
2023/12/09 14:26:00;;;;;;;3.30;3.00;;;6.10;91.00;;;;;;4839000;29;20446;-81
2023/12/09 14:28:31;;;;;;;1.70;1.60;;;6.10;91.20;;;;;;4841081;29;20217;-82
2023/12/09 14:30:59;;;;;;;3.33;1.80;;;6.10;91.20;;;;;;4837767;29;20229;-82
2023/12/09 14:33:28;;;;;;;3.37;3.07;;;6.10;91.20;;;;;;4840865;29;20261;-81
2023/12/09 14:35:57;;;;;;;1.83;1.73;;;6.10;91.20;;;;;;4839554;29;20213;-81